Pagrindinis puslapis
METAR-TAF:

METAR-TAF

Oro uostai :

Pchenjanas, Šiaurės Korėja

platuma: 39-02N, ilguma: 125-47E, Aukštis: 36 m

METAR: trūkstamas

Laikas: 07:48 (22:48 UTC)

Prognozė

Ataskaita buvo paskelbta 18 valandos ir 8 minutes, ne 04:40 UTC
Prognozė galioja nuo 05 metu 06 UTC su 06 metu 06 UTC
Vėjas 14 kt iš Šiaurės Vakarų
Matomumas 10 km arba daugiau
nėra debesų žemiau 1500 m ir nėra kamuolinių lietaus debesų

TAF: ZKPY 050440Z 0506/0606 32007MPS CAVOK TX12/0506Z TN01/0521Z

Orai ataskaitas ir orų prognozės (METAR, TAF).

turimą stotys yra geltonos ir raudonos taškus žemėlapyje.

Perkelti pele per norėdami pamatyti stoties vardą.

Tada spustelėkite, norėdami matyti oro stebėjimo ir prognozės.

Norėdami pakeisti žemėlapį: spustelėkite ant žalios mygtukų su juodo kryžiaus žemyn,; žalią mygtuką su brūkšneliu, jei norite nutolinti; arba žalių rodyklių gretimoms žemėlapius.


METAR-TAF: